Terminal Aerodrome Forecast
Issued by NWS

Home | Current Version | Previous Version | Graphics & Text | Print | Product List | Glossary On
Versions: 1 2 3 4 5 6 7 8 9 10 11 12 13 14 15 16
000
FTUS43 KTOP 041735
TAFMHK
TAF
KMHK 041735Z 0418/0518 15006KT P6SM FEW035
     FM050400 14007KT P6SM BKN035
     FM051500 16012KT P6SM VCTS BKN050CB=

USA.gov is the U.S. government's official web portal to all federal, state and local government web resources and services.